Time,TemperatureF,DewpointF,PressureIn,WindDirection,WindDirectionDegrees,WindSpeedMPH,WindSpeedGustMPH,Humidity,HourlyPrecipIn,Conditions,Clouds,dailyrainin,SoftwareType,DateUTC
2013-05-11 00:00:00,58.8,54.6,30.05,SSE,153,0.0,0.0,86,0.00,,---,0.01,VWS V14.01,2013-05-11 07:00:00,
2013-05-11 00:02:00,58.8,54.6,30.05,SSE,153,0.0,0.0,86,0.00,,---,0.00,VWS V14.01,2013-05-11 07:02:00,
2013-05-11 00:07:00,58.6,54.1,30.04,SSE,153,0.0,0.0,85,0.00,,---,0.00,VWS V14.01,2013-05-11 07:07:00,
2013-05-11 00:12:00,58.3,53.8,30.04,SSE,152,0.0,0.0,85,0.00,,---,0.00,VWS V14.01,2013-05-11 07:12:00,
2013-05-11 00:15:00,58.2,53.7,30.04,SSE,153,0.0,0.0,85,0.00,,---,0.00,VWS V14.01,2013-05-11 07:15:00,
2013-05-11 00:17:00,58.2,53.7,30.05,SSE,153,0.0,0.0,85,0.00,,---,0.00,VWS V14.01,2013-05-11 07:17:00,
2013-05-11 00:22:00,58.0,53.5,30.05,SSE,153,0.0,0.0,85,0.00,,---,0.00,VWS V14.01,2013-05-11 07:22:00,
2013-05-11 00:27:00,58.1,53.6,30.05,SSE,153,0.0,0.0,85,0.00,,---,0.00,VWS V14.01,2013-05-11 07:27:00,
2013-05-11 00:30:00,58.1,53.6,30.05,SSE,153,0.0,0.0,85,0.00,,---,0.00,VWS V14.01,2013-05-11 07:30:00,
2013-05-11 00:32:00,58.0,53.5,30.05,SSE,153,0.0,0.0,85,0.00,,---,0.00,VWS V14.01,2013-05-11 07:32:00,
2013-05-11 00:37:00,57.9,53.4,30.05,SSE,153,0.0,0.0,85,0.00,,---,0.00,VWS V14.01,2013-05-11 07:37:00,
2013-05-11 00:42:00,57.8,53.3,30.05,SSE,153,0.0,0.0,85,0.00,,---,0.00,VWS V14.01,2013-05-11 07:42:00,
2013-05-11 00:45:00,57.7,53.2,30.05,SSE,153,0.0,0.0,85,0.00,,---,0.00,VWS V14.01,2013-05-11 07:45:00,
2013-05-11 00:47:00,57.7,53.2,30.04,SSE,152,0.0,0.0,85,0.00,,---,0.00,VWS V14.01,2013-05-11 07:47:00,
2013-05-11 00:52:00,57.8,53.3,30.05,SSE,152,0.0,0.0,85,0.00,,---,0.00,VWS V14.01,2013-05-11 07:52:00,
2013-05-11 00:57:00,57.7,53.2,30.04,SSE,153,0.0,0.0,85,0.00,,---,0.00,VWS V14.01,2013-05-11 07:57:00,
2013-05-11 01:00:00,57.6,52.8,30.04,SSE,153,0.0,0.0,84,0.00,,---,0.00,VWS V14.01,2013-05-11 08:00:00,
2013-05-11 01:02:00,57.5,52.7,30.04,SSE,153,0.0,0.0,84,0.00,,---,0.00,VWS V14.01,2013-05-11 08:02:00,
2013-05-11 01:07:00,57.4,52.6,30.04,SSE,153,0.0,0.0,84,0.00,,---,0.00,VWS V14.01,2013-05-11 08:07:00,
2013-05-11 01:12:00,57.2,52.4,30.03,SSE,153,0.0,0.0,84,0.00,,---,0.00,VWS V14.01,2013-05-11 08:12:00,
2013-05-11 01:15:00,57.2,52.4,30.03,SSE,153,0.0,0.0,84,0.00,,---,0.00,VWS V14.01,2013-05-11 08:15:00,
2013-05-11 01:17:00,57.1,52.3,30.03,SSE,153,0.0,0.0,84,0.00,,---,0.00,VWS V14.01,2013-05-11 08:17:00,
2013-05-11 01:22:00,57.1,52.3,30.04,SSE,153,0.0,0.0,84,0.00,,---,0.00,VWS V14.01,2013-05-11 08:22:00,
2013-05-11 01:27:00,57.1,52.3,30.03,SSE,153,0.0,0.0,84,0.00,,---,0.00,VWS V14.01,2013-05-11 08:27:00,
2013-05-11 01:30:00,57.1,52.3,30.03,SSE,153,0.0,0.0,84,0.00,,---,0.00,VWS V14.01,2013-05-11 08:30:00,
2013-05-11 01:32:00,57.1,52.3,30.03,SSE,153,0.0,0.0,84,0.00,,---,0.00,VWS V14.01,2013-05-11 08:32:00,
2013-05-11 01:37:00,57.1,52.0,30.03,SSE,153,0.0,0.0,83,0.00,,---,0.00,VWS V14.01,2013-05-11 08:37:00,
2013-05-11 01:43:00,57.0,51.9,30.03,SSE,153,0.0,2.0,83,0.00,,---,0.00,VWS V14.01,2013-05-11 08:43:00,
2013-05-11 01:45:00,56.9,51.8,30.03,SSE,153,0.0,2.0,83,0.00,,---,0.00,VWS V14.01,2013-05-11 08:45:00,
2013-05-11 01:48:00,56.9,51.8,30.03,SSE,152,0.0,0.0,83,0.00,,---,0.00,VWS V14.01,2013-05-11 08:48:00,
2013-05-11 01:53:00,56.8,51.7,30.03,SSE,153,0.0,0.0,83,0.00,,---,0.00,VWS V14.01,2013-05-11 08:53:00,
2013-05-11 01:58:00,56.7,51.6,30.03,SSE,152,0.0,3.0,83,0.00,,---,0.00,VWS V14.01,2013-05-11 08:58:00,
2013-05-11 02:00:00,56.7,51.6,30.03,SSE,153,0.0,3.0,83,0.00,,---,0.00,VWS V14.01,2013-05-11 09:00:00,
2013-05-11 02:03:00,56.7,51.6,30.03,SSE,153,0.0,0.0,83,0.00,,---,0.00,VWS V14.01,2013-05-11 09:03:00,
2013-05-11 02:08:00,56.7,51.9,30.02,SSE,153,0.0,0.0,84,0.00,,---,0.00,VWS V14.01,2013-05-11 09:08:00,
2013-05-11 02:13:00,56.7,51.9,30.03,SSE,148,1.0,3.0,84,0.00,,---,0.00,VWS V14.01,2013-05-11 09:13:00,
2013-05-11 02:15:00,56.8,52.0,30.02,SSE,149,0.0,3.0,84,0.00,,---,0.00,VWS V14.01,2013-05-11 09:15:00,
2013-05-11 02:18:00,56.9,52.1,30.03,SSE,148,0.0,0.0,84,0.00,,---,0.00,VWS V14.01,2013-05-11 09:18:00,
2013-05-11 02:23:00,56.9,52.1,30.02,ESE,119,2.0,3.0,84,0.00,,---,0.00,VWS V14.01,2013-05-11 09:23:00,
2013-05-11 02:28:00,56.8,52.0,30.02,ESE,116,0.0,3.0,84,0.00,,---,0.00,VWS V14.01,2013-05-11 09:28:00,
2013-05-11 02:30:00,56.8,52.0,30.02,ESE,114,2.0,3.0,84,0.00,,---,0.00,VWS V14.01,2013-05-11 09:30:00,
2013-05-11 02:33:00,56.8,51.7,30.02,ESE,115,1.0,3.0,83,0.00,,---,0.00,VWS V14.01,2013-05-11 09:33:00,
2013-05-11 02:38:00,56.8,52.0,30.02,ESE,115,0.0,3.0,84,0.00,,---,0.00,VWS V14.01,2013-05-11 09:38:00,
2013-05-11 02:43:00,56.8,51.7,30.02,ESE,115,0.0,3.0,83,0.00,,---,0.00,VWS V14.01,2013-05-11 09:43:00,
2013-05-11 02:45:00,56.7,51.6,30.02,ESE,115,1.0,3.0,83,0.00,,---,0.00,VWS V14.01,2013-05-11 09:45:00,
2013-05-11 02:48:00,56.7,51.6,30.02,ESE,114,0.0,3.0,83,0.00,,---,0.00,VWS V14.01,2013-05-11 09:48:00,
2013-05-11 02:53:00,56.7,51.6,30.02,ESE,115,0.0,3.0,83,0.00,,---,0.00,VWS V14.01,2013-05-11 09:53:00,
2013-05-11 02:58:00,56.6,51.5,30.02,ESE,115,0.0,3.0,83,0.00,,---,0.00,VWS V14.01,2013-05-11 09:58:00,
2013-05-11 03:00:00,56.6,51.5,30.02,ESE,115,0.0,3.0,83,0.00,,---,0.00,VWS V14.01,2013-05-11 10:00:00,
2013-05-11 03:03:00,56.4,51.3,30.02,ESE,115,0.0,0.0,83,0.00,,---,0.00,VWS V14.01,2013-05-11 10:03:00,
2013-05-11 03:08:00,56.2,50.8,30.02,ESE,115,0.0,0.0,82,0.00,,---,0.00,VWS V14.01,2013-05-11 10:08:00,
2013-05-11 03:13:00,56.1,50.7,30.02,ESE,115,0.0,0.0,82,0.00,,---,0.00,VWS V14.01,2013-05-11 10:13:00,
2013-05-11 03:15:00,56.0,50.6,30.02,ESE,115,0.0,0.0,82,0.00,,---,0.00,VWS V14.01,2013-05-11 10:15:00,
2013-05-11 03:18:00,56.0,50.6,30.02,ESE,115,0.0,0.0,82,0.00,,---,0.00,VWS V14.01,2013-05-11 10:18:00,
2013-05-11 03:23:00,55.9,50.5,30.01,ESE,114,0.0,0.0,82,0.00,,---,0.00,VWS V14.01,2013-05-11 10:23:00,
2013-05-11 03:28:00,55.8,50.7,30.01,ESE,115,0.0,0.0,83,0.00,,---,0.00,VWS V14.01,2013-05-11 10:28:00,
2013-05-11 03:30:00,55.9,50.8,30.01,ESE,115,0.0,0.0,83,0.00,,---,0.00,VWS V14.01,2013-05-11 10:30:00,
2013-05-11 03:33:00,55.8,50.7,30.01,ESE,115,0.0,0.0,83,0.00,,---,0.00,VWS V14.01,2013-05-11 10:33:00,
2013-05-11 03:38:00,55.9,51.1,30.01,ESE,115,0.0,0.0,84,0.00,,---,0.00,VWS V14.01,2013-05-11 10:38:00,
2013-05-11 03:43:00,55.9,50.8,30.01,ESE,115,0.0,0.0,83,0.00,,---,0.00,VWS V14.01,2013-05-11 10:43:00,
2013-05-11 03:45:00,55.9,50.8,30.01,ESE,115,0.0,0.0,83,0.00,,---,0.00,VWS V14.01,2013-05-11 10:45:00,
2013-05-11 03:48:00,55.8,50.7,30.01,ESE,115,0.0,0.0,83,0.00,,---,0.00,VWS V14.01,2013-05-11 10:48:00,
2013-05-11 03:53:00,55.8,50.7,30.01,ESE,115,0.0,0.0,83,0.00,,---,0.00,VWS V14.01,2013-05-11 10:53:00,
2013-05-11 03:58:00,55.6,50.2,30.01,ESE,115,0.0,0.0,82,0.00,,---,0.00,VWS V14.01,2013-05-11 10:58:00,
2013-05-11 04:03:00,55.7,50.6,30.01,ESE,115,0.0,0.0,83,0.00,,---,0.00,VWS V14.01,2013-05-11 11:03:00,
2013-05-11 04:08:00,55.7,50.6,30.01,ESE,115,0.0,0.0,83,0.00,,---,0.00,VWS V14.01,2013-05-11 11:08:00,
2013-05-11 04:13:00,55.6,50.5,30.01,ESE,114,0.0,0.0,83,0.00,,---,0.00,VWS V14.01,2013-05-11 11:13:00,
2013-05-11 04:15:00,55.6,50.5,30.01,ESE,114,0.0,0.0,83,0.00,,---,0.00,VWS V14.01,2013-05-11 11:15:00,
2013-05-11 04:18:00,55.6,50.5,30.01,ESE,115,0.0,0.0,83,0.00,,---,0.00,VWS V14.01,2013-05-11 11:18:00,
2013-05-11 04:23:00,55.7,50.6,30.01,ESE,115,0.0,0.0,83,0.00,,---,0.00,VWS V14.01,2013-05-11 11:23:00,
2013-05-11 04:28:00,55.8,50.7,30.01,ESE,115,0.0,0.0,83,0.00,,---,0.00,VWS V14.01,2013-05-11 11:28:00,
2013-05-11 04:30:00,55.7,50.6,30.01,ESE,115,0.0,0.0,83,0.00,,---,0.00,VWS V14.01,2013-05-11 11:30:00,
2013-05-11 04:33:00,55.7,50.6,30.01,ESE,115,0.0,0.0,83,0.00,,---,0.00,VWS V14.01,2013-05-11 11:33:00,
2013-05-11 04:38:00,55.7,50.6,30.01,ESE,115,0.0,0.0,83,0.00,,---,0.00,VWS V14.01,2013-05-11 11:38:00,
2013-05-11 04:43:00,55.6,50.5,30.01,ESE,115,0.0,0.0,83,0.00,,---,0.00,VWS V14.01,2013-05-11 11:43:00,
2013-05-11 04:45:00,55.6,50.5,30.01,ESE,115,0.0,0.0,83,0.00,,---,0.00,VWS V14.01,2013-05-11 11:45:00,
2013-05-11 04:48:00,55.6,50.5,30.00,ESE,115,0.0,0.0,83,0.00,,---,0.00,VWS V14.01,2013-05-11 11:48:00,
2013-05-11 04:53:00,55.5,50.4,30.00,ESE,115,0.0,0.0,83,0.00,,---,0.00,VWS V14.01,2013-05-11 11:53:00,
2013-05-11 04:59:00,55.4,50.3,30.00,ESE,115,0.0,2.0,83,0.00,,---,0.00,VWS V14.01,2013-05-11 11:59:00,
2013-05-11 05:00:00,55.3,50.2,30.00,ESE,115,0.0,2.0,83,0.00,,---,0.00,VWS V14.01,2013-05-11 12:00:00,
2013-05-11 05:04:00,55.2,50.1,30.01,ESE,114,0.0,0.0,83,0.00,,---,0.00,VWS V14.01,2013-05-11 12:04:00,
2013-05-11 05:09:00,55.1,50.4,30.01,ESE,115,0.0,0.0,84,0.00,,---,0.00,VWS V14.01,2013-05-11 12:09:00,
2013-05-11 05:14:00,55.1,50.4,30.00,ESE,115,0.0,0.0,84,0.00,,---,0.00,VWS V14.01,2013-05-11 12:14:00,
2013-05-11 05:15:00,55.1,50.4,30.01,ESE,115,0.0,0.0,84,0.00,,---,0.00,VWS V14.01,2013-05-11 12:15:00,
2013-05-11 05:19:00,55.3,50.9,30.00,ESE,115,0.0,0.0,85,0.00,,---,0.00,VWS V14.01,2013-05-11 12:19:00,
2013-05-11 05:24:00,55.4,51.0,30.00,ESE,115,0.0,0.0,85,0.00,,---,0.00,VWS V14.01,2013-05-11 12:24:00,
2013-05-11 05:29:00,55.5,51.1,30.00,ESE,115,0.0,0.0,85,0.01,,---,0.01,VWS V14.01,2013-05-11 12:29:00,
2013-05-11 05:30:00,55.5,51.1,30.00,ESE,114,0.0,0.0,85,0.01,,---,0.01,VWS V14.01,2013-05-11 12:30:00,
2013-05-11 05:34:00,55.5,51.1,30.00,ESE,115,0.0,0.0,85,0.01,,---,0.01,VWS V14.01,2013-05-11 12:34:00,
2013-05-11 05:39:00,55.5,51.1,30.00,ESE,115,0.0,0.0,85,0.01,,---,0.01,VWS V14.01,2013-05-11 12:39:00,
2013-05-11 05:44:00,55.3,50.9,30.01,ESE,115,0.0,0.0,85,0.01,,---,0.01,VWS V14.01,2013-05-11 12:44:00,
2013-05-11 05:45:00,55.2,50.8,30.01,ESE,115,0.0,0.0,85,0.01,,---,0.01,VWS V14.01,2013-05-11 12:45:00,
2013-05-11 05:49:00,55.1,50.7,30.01,ESE,115,0.0,0.0,85,0.01,,---,0.01,VWS V14.01,2013-05-11 12:49:00,
2013-05-11 05:54:00,54.9,50.5,30.01,ESE,115,0.0,0.0,85,0.01,,---,0.01,VWS V14.01,2013-05-11 12:54:00,
2013-05-11 05:59:00,54.8,50.4,30.01,ESE,115,0.0,0.0,85,0.01,,---,0.01,VWS V14.01,2013-05-11 12:59:00,
2013-05-11 06:00:00,54.8,50.4,30.01,ESE,115,0.0,0.0,85,0.01,,---,0.01,VWS V14.01,2013-05-11 13:00:00,
2013-05-11 06:04:00,54.7,50.3,30.01,ESE,115,0.0,0.0,85,0.01,,---,0.01,VWS V14.01,2013-05-11 13:04:00,
2013-05-11 06:09:00,54.6,50.5,30.01,ESE,115,0.0,0.0,86,0.01,,---,0.01,VWS V14.01,2013-05-11 13:09:00,
2013-05-11 06:14:00,54.6,50.5,30.01,ESE,114,0.0,0.0,86,0.01,,---,0.01,VWS V14.01,2013-05-11 13:14:00,
2013-05-11 06:19:00,54.6,50.5,30.02,ESE,115,0.0,0.0,86,0.01,,---,0.01,VWS V14.01,2013-05-11 13:19:00,
2013-05-11 06:24:00,54.7,50.9,30.02,ESE,115,0.0,0.0,87,0.01,,---,0.01,VWS V14.01,2013-05-11 13:24:00,
2013-05-11 06:29:00,54.8,51.0,30.02,ESE,115,0.0,0.0,87,0.01,,---,0.01,VWS V14.01,2013-05-11 13:29:00,
2013-05-11 06:30:00,54.8,51.0,30.02,ESE,115,0.0,0.0,87,0.01,,---,0.01,VWS V14.01,2013-05-11 13:30:00,
2013-05-11 06:34:00,54.8,51.0,30.02,ESE,116,0.0,0.0,87,0.00,,---,0.01,VWS V14.01,2013-05-11 13:34:00,
2013-05-11 06:39:00,54.7,50.9,30.02,ESE,115,0.0,0.0,87,0.00,,---,0.01,VWS V14.01,2013-05-11 13:39:00,
2013-05-11 06:44:00,54.8,51.0,30.03,ESE,114,0.0,0.0,87,0.00,,---,0.01,VWS V14.01,2013-05-11 13:44:00,
2013-05-11 06:45:00,54.8,51.0,30.03,ESE,115,0.0,0.0,87,0.00,,---,0.01,VWS V14.01,2013-05-11 13:45:00,
2013-05-11 06:49:00,55.0,51.5,30.03,ESE,115,0.0,0.0,88,0.00,,---,0.01,VWS V14.01,2013-05-11 13:49:00,
2013-05-11 06:54:00,55.3,51.8,30.03,ESE,115,0.0,0.0,88,0.00,,---,0.01,VWS V14.01,2013-05-11 13:54:00,
2013-05-11 06:59:00,55.5,52.0,30.03,ESE,115,0.0,0.0,88,0.00,,---,0.01,VWS V14.01,2013-05-11 13:59:00,
2013-05-11 07:00:00,55.5,52.0,30.03,ESE,115,0.0,0.0,88,0.00,,---,0.01,VWS V14.01,2013-05-11 14:00:00,
2013-05-11 07:04:00,55.6,52.1,30.03,ESE,115,0.0,0.0,88,0.00,,---,0.01,VWS V14.01,2013-05-11 14:04:00,
2013-05-11 07:09:00,55.7,52.2,30.03,ESE,115,0.0,0.0,88,0.00,,---,0.01,VWS V14.01,2013-05-11 14:09:00,
2013-05-11 07:14:00,55.8,52.3,30.03,ESE,115,0.0,0.0,88,0.00,,---,0.01,VWS V14.01,2013-05-11 14:14:00,
2013-05-11 07:15:00,55.8,52.3,30.03,ESE,115,0.0,0.0,88,0.00,,---,0.01,VWS V14.01,2013-05-11 14:15:00,
2013-05-11 07:19:00,55.9,52.7,30.03,ESE,115,0.0,0.0,89,0.00,,---,0.01,VWS V14.01,2013-05-11 14:19:00,
2013-05-11 07:24:00,56.1,52.9,30.02,ESE,115,0.0,0.0,89,0.00,,---,0.01,VWS V14.01,2013-05-11 14:24:00,
2013-05-11 07:29:00,56.3,53.1,30.02,ESE,114,0.0,0.0,89,0.00,,---,0.01,VWS V14.01,2013-05-11 14:29:00,
2013-05-11 07:30:00,56.4,53.2,30.02,ESE,114,1.0,1.0,89,0.00,,---,0.01,VWS V14.01,2013-05-11 14:30:00,
2013-05-11 07:34:00,56.6,53.4,30.03,ESE,114,0.0,2.0,89,0.00,,---,0.01,VWS V14.01,2013-05-11 14:34:00,
2013-05-11 07:39:00,56.8,53.6,30.03,ESE,115,0.0,2.0,89,0.00,,---,0.01,VWS V14.01,2013-05-11 14:39:00,
2013-05-11 07:44:00,57.0,53.8,30.03,ESE,115,0.0,2.0,89,0.00,,---,0.01,VWS V14.01,2013-05-11 14:44:00,
2013-05-11 07:45:00,57.0,53.8,30.03,ESE,115,0.0,2.0,89,0.00,,---,0.01,VWS V14.01,2013-05-11 14:45:00,
2013-05-11 07:49:00,57.2,54.0,30.03,ESE,116,1.0,3.0,89,0.00,,---,0.01,VWS V14.01,2013-05-11 14:49:00,
2013-05-11 07:54:00,57.4,54.2,30.03,WSW,245,2.0,3.0,89,0.00,,---,0.01,VWS V14.01,2013-05-11 14:54:00,
2013-05-11 07:59:00,57.6,54.4,30.03,West,259,1.0,4.0,89,0.00,,---,0.01,VWS V14.01,2013-05-11 14:59:00,
2013-05-11 08:04:00,57.7,54.5,30.03,WSW,249,0.0,4.0,89,0.00,,---,0.01,VWS V14.01,2013-05-11 15:04:00,
2013-05-11 08:09:00,57.8,54.3,30.03,WSW,251,0.0,4.0,88,0.00,,---,0.01,VWS V14.01,2013-05-11 15:09:00,
2013-05-11 08:14:00,57.9,54.7,30.03,WSW,250,0.0,4.0,89,0.00,,---,0.01,VWS V14.01,2013-05-11 15:14:00,
2013-05-11 08:15:00,58.0,54.8,30.03,WSW,252,0.0,4.0,89,0.00,,---,0.01,VWS V14.01,2013-05-11 15:15:00,
2013-05-11 08:19:00,58.2,55.0,30.03,WSW,249,0.0,3.0,89,0.00,,---,0.01,VWS V14.01,2013-05-11 15:19:00,
2013-05-11 08:24:00,58.5,55.3,30.04,WSW,248,0.0,4.0,89,0.00,,---,0.01,VWS V14.01,2013-05-11 15:24:00,
2013-05-11 08:29:00,58.7,55.5,30.04,WSW,252,0.0,4.0,89,0.00,,---,0.01,VWS V14.01,2013-05-11 15:29:00,
2013-05-11 08:30:00,58.8,55.6,30.04,WSW,254,3.0,4.0,89,0.00,,---,0.01,VWS V14.01,2013-05-11 15:30:00,
2013-05-11 08:34:00,59.0,55.8,30.04,WSW,254,0.0,4.0,89,0.00,,---,0.01,VWS V14.01,2013-05-11 15:34:00,
2013-05-11 08:39:00,59.1,55.9,30.04,SW,219,0.0,5.0,89,0.00,,---,0.01,VWS V14.01,2013-05-11 15:39:00,
2013-05-11 08:44:00,59.5,56.3,30.04,SW,233,3.0,5.0,89,0.00,,---,0.01,VWS V14.01,2013-05-11 15:44:00,
2013-05-11 08:45:00,59.6,56.4,30.04,SW,233,2.0,5.0,89,0.00,,---,0.01,VWS V14.01,2013-05-11 15:45:00,
2013-05-11 08:50:00,59.9,56.7,30.04,SW,232,2.0,5.0,89,0.00,,---,0.01,VWS V14.01,2013-05-11 15:50:00,
2013-05-11 08:55:00,60.2,57.0,30.04,SSW,209,1.0,5.0,89,0.00,,---,0.01,VWS V14.01,2013-05-11 15:55:00,
2013-05-11 09:00:00,60.4,56.8,30.05,SSW,195,2.0,5.0,88,0.00,,---,0.01,VWS V14.01,2013-05-11 16:00:00,
2013-05-11 09:05:00,60.8,57.2,30.05,SSW,195,0.0,3.0,88,0.00,,---,0.01,VWS V14.01,2013-05-11 16:05:00,
2013-05-11 09:10:00,61.2,57.3,30.05,SW,216,2.0,4.0,87,0.00,,---,0.01,VWS V14.01,2013-05-11 16:10:00,
2013-05-11 09:15:00,61.8,57.9,30.05,SW,217,2.0,5.0,87,0.00,,---,0.01,VWS V14.01,2013-05-11 16:15:00,
2013-05-11 09:20:00,62.3,58.1,30.04,WSW,246,0.0,4.0,86,0.00,,---,0.01,VWS V14.01,2013-05-11 16:20:00,
2013-05-11 09:25:00,63.2,58.3,30.04,WSW,245,3.0,5.0,84,0.00,,---,0.01,VWS V14.01,2013-05-11 16:25:00,
2013-05-11 09:30:00,64.1,58.8,30.04,WSW,248,2.0,5.0,83,0.00,,---,0.01,VWS V14.01,2013-05-11 16:30:00,
2013-05-11 09:35:00,64.9,58.6,30.03,SSW,203,3.0,3.0,80,0.00,,---,0.01,VWS V14.01,2013-05-11 16:35:00,
2013-05-11 09:40:00,65.6,59.3,30.03,SSW,202,0.0,4.0,80,0.00,,---,0.01,VWS V14.01,2013-05-11 16:40:00,
2013-05-11 09:45:00,66.3,59.6,30.03,SSW,203,0.0,4.0,79,0.00,,---,0.01,VWS V14.01,2013-05-11 16:45:00,
2013-05-11 09:50:00,67.0,59.2,30.03,SSW,206,3.0,4.0,76,0.00,,---,0.01,VWS V14.01,2013-05-11 16:50:00,
2013-05-11 09:55:00,67.5,60.0,30.03,SSW,207,0.0,4.0,77,0.00,,---,0.01,VWS V14.01,2013-05-11 16:55:00,
2013-05-11 10:00:00,68.2,60.3,30.03,West,265,0.0,4.0,76,0.00,,---,0.01,VWS V14.01,2013-05-11 17:00:00,
2013-05-11 10:05:00,68.8,60.2,30.03,SW,221,0.0,1.0,74,0.00,,---,0.01,VWS V14.01,2013-05-11 17:05:00,
2013-05-11 10:10:00,69.7,60.7,30.03,SW,229,0.0,4.0,73,0.00,,---,0.01,VWS V14.01,2013-05-11 17:10:00,
2013-05-11 10:15:00,70.4,61.0,30.03,SSW,213,1.0,4.0,72,0.00,,---,0.01,VWS V14.01,2013-05-11 17:15:00,
2013-05-11 10:20:00,71.0,61.5,30.03,SW,223,0.0,4.0,72,0.00,,---,0.01,VWS V14.01,2013-05-11 17:20:00,
2013-05-11 10:25:00,71.5,60.8,30.03,SW,222,0.0,4.0,69,0.00,,---,0.01,VWS V14.01,2013-05-11 17:25:00,
2013-05-11 10:30:00,72.4,60.8,30.03,SW,221,0.0,4.0,67,0.00,,---,0.01,VWS V14.01,2013-05-11 17:30:00,
2013-05-11 10:35:00,73.0,61.4,30.02,SSW,194,0.0,5.0,67,0.00,,---,0.01,VWS V14.01,2013-05-11 17:35:00,
2013-05-11 10:40:00,73.4,62.2,30.02,South,189,2.0,5.0,68,0.00,,---,0.01,VWS V14.01,2013-05-11 17:40:00,
2013-05-11 10:45:00,73.9,62.7,30.02,SSW,210,1.0,5.0,68,0.00,,---,0.01,VWS V14.01,2013-05-11 17:45:00,
2013-05-11 10:50:00,74.3,62.6,30.02,SW,227,0.0,3.0,67,0.00,,---,0.01,VWS V14.01,2013-05-11 17:50:00,
2013-05-11 10:55:00,74.6,62.5,30.02,West,263,0.0,5.0,66,0.00,,---,0.01,VWS V14.01,2013-05-11 17:55:00,
2013-05-11 11:00:00,75.1,63.0,30.02,West,259,0.0,5.0,66,0.00,,---,0.01,VWS V14.01,2013-05-11 18:00:00,
2013-05-11 11:05:00,75.5,62.5,30.02,SSW,213,1.0,2.0,64,0.00,,---,0.01,VWS V14.01,2013-05-11 18:05:00,
2013-05-11 11:10:00,76.2,62.7,30.02,SW,214,0.0,5.0,63,0.00,,---,0.01,VWS V14.01,2013-05-11 18:10:00,
2013-05-11 11:15:00,76.6,63.1,30.02,SW,233,0.0,5.0,63,0.00,,---,0.01,VWS V14.01,2013-05-11 18:15:00,
2013-05-11 11:20:00,77.1,63.5,30.02,SW,234,0.0,3.0,63,0.00,,---,0.01,VWS V14.01,2013-05-11 18:20:00,
2013-05-11 11:25:00,77.6,62.6,30.01,SW,234,0.0,5.0,60,0.00,,---,0.01,VWS V14.01,2013-05-11 18:25:00,
2013-05-11 11:30:00,78.5,63.0,30.01,SW,236,0.0,5.0,59,0.00,,---,0.01,VWS V14.01,2013-05-11 18:30:00,
2013-05-11 11:35:00,79.6,64.0,30.01,SSW,197,0.0,3.0,59,0.00,,---,0.01,VWS V14.01,2013-05-11 18:35:00,
2013-05-11 11:40:00,80.3,65.2,30.01,SW,232,0.0,4.0,60,0.00,,---,0.01,VWS V14.01,2013-05-11 18:40:00,
2013-05-11 11:45:00,80.5,64.4,30.00,SW,222,3.0,3.0,58,0.00,,---,0.01,VWS V14.01,2013-05-11 18:45:00,
2013-05-11 11:50:00,80.7,64.6,30.00,SSW,203,3.0,5.0,58,0.00,,---,0.01,VWS V14.01,2013-05-11 18:50:00,
2013-05-11 11:55:00,81.0,65.8,30.00,SW,223,4.0,6.0,60,0.00,,---,0.01,VWS V14.01,2013-05-11 18:55:00,
2013-05-11 12:00:00,81.3,64.6,30.00,SW,220,3.0,3.0,57,0.00,,---,0.01,VWS V14.01,2013-05-11 19:00:00,
2013-05-11 12:05:00,81.6,64.9,30.00,West,264,2.0,5.0,57,0.00,,---,0.01,VWS V14.01,2013-05-11 19:05:00,
2013-05-11 12:11:00,81.4,64.2,30.00,SW,229,4.0,7.0,56,0.00,,---,0.01,VWS V14.01,2013-05-11 19:11:00,
2013-05-11 12:15:00,81.7,64.5,30.00,West,263,3.0,7.0,56,0.00,,---,0.01,VWS V14.01,2013-05-11 19:15:00,
2013-05-11 12:16:00,81.7,64.5,30.00,West,271,3.0,4.0,56,0.00,,---,0.01,VWS V14.01,2013-05-11 19:16:00,
2013-05-11 12:21:00,81.6,63.4,30.00,SW,219,1.0,7.0,54,0.00,,---,0.01,VWS V14.01,2013-05-11 19:21:00,
2013-05-11 12:26:00,81.9,64.7,30.00,SW,217,0.0,7.0,56,0.00,,---,0.01,VWS V14.01,2013-05-11 19:26:00,
2013-05-11 12:30:00,82.3,65.6,30.00,West,276,0.0,7.0,57,0.00,,---,0.01,VWS V14.01,2013-05-11 19:30:00,
2013-05-11 12:31:00,82.3,63.5,30.00,West,275,0.0,1.0,53,0.00,,---,0.01,VWS V14.01,2013-05-11 19:31:00,
2013-05-11 12:36:00,82.6,64.8,30.00,SSW,211,1.0,7.0,55,0.00,,---,0.01,VWS V14.01,2013-05-11 19:36:00,
2013-05-11 12:41:00,83.0,63.6,30.00,West,277,0.0,7.0,52,0.00,,---,0.01,VWS V14.01,2013-05-11 19:41:00,
2013-05-11 12:45:00,83.2,63.8,29.99,SSW,211,5.0,7.0,52,0.00,,---,0.01,VWS V14.01,2013-05-11 19:45:00,
2013-05-11 12:46:00,83.2,63.8,29.99,SW,220,2.0,5.0,52,0.00,,---,0.01,VWS V14.01,2013-05-11 19:46:00,
2013-05-11 12:51:00,83.8,64.9,29.99,SW,236,0.0,6.0,53,0.00,,---,0.01,VWS V14.01,2013-05-11 19:51:00,
2013-05-11 12:56:00,84.1,64.6,29.99,WNW,284,2.0,6.0,52,0.00,,---,0.01,VWS V14.01,2013-05-11 19:56:00,
2013-05-11 13:00:00,84.1,63.5,29.99,West,259,6.0,9.0,50,0.00,,---,0.01,VWS V14.01,2013-05-11 20:00:00,
2013-05-11 13:01:00,84.1,63.5,29.99,WSW,241,4.0,6.0,50,0.00,,---,0.01,VWS V14.01,2013-05-11 20:01:00,
2013-05-11 13:06:00,84.6,64.5,29.99,SW,225,4.0,9.0,51,0.00,,---,0.01,VWS V14.01,2013-05-11 20:06:00,
2013-05-11 13:11:00,85.0,64.3,29.99,SSW,208,1.0,9.0,50,0.00,,---,0.01,VWS V14.01,2013-05-11 20:11:00,
2013-05-11 13:15:00,85.6,64.3,29.99,SW,233,0.0,9.0,49,0.00,,---,0.01,VWS V14.01,2013-05-11 20:15:00,
2013-05-11 13:16:00,85.7,64.4,29.99,NW,304,3.0,4.0,49,0.00,,---,0.01,VWS V14.01,2013-05-11 20:16:00,
2013-05-11 13:21:00,85.8,62.7,29.99,NW,318,0.0,5.0,46,0.00,,---,0.01,VWS V14.01,2013-05-11 20:21:00,
2013-05-11 13:26:00,85.8,63.9,29.99,West,264,1.0,5.0,48,0.00,,---,0.01,VWS V14.01,2013-05-11 20:26:00,
2013-05-11 13:30:00,86.0,62.8,29.99,SW,234,1.0,6.0,46,0.00,,---,0.01,VWS V14.01,2013-05-11 20:30:00,
2013-05-11 13:31:00,86.0,62.8,29.99,NW,306,4.0,4.0,46,0.00,,---,0.01,VWS V14.01,2013-05-11 20:31:00,
2013-05-11 13:36:00,86.3,64.9,29.99,West,267,1.0,5.0,49,0.00,,---,0.01,VWS V14.01,2013-05-11 20:36:00,
2013-05-11 13:41:00,86.4,62.6,29.98,NW,324,3.0,6.0,45,0.00,,---,0.01,VWS V14.01,2013-05-11 20:41:00,
2013-05-11 13:45:00,86.3,63.7,29.98,WSW,252,2.0,9.0,47,0.00,,---,0.01,VWS V14.01,2013-05-11 20:45:00,
2013-05-11 13:46:00,86.3,64.3,29.98,WSW,241,1.0,3.0,48,0.00,,---,0.01,VWS V14.01,2013-05-11 20:46:00,
2013-05-11 13:51:00,86.5,63.9,29.98,West,273,2.0,6.0,47,0.00,,---,0.01,VWS V14.01,2013-05-11 20:51:00,
2013-05-11 13:56:00,87.0,65.0,29.98,WSW,248,4.0,6.0,48,0.00,,---,0.01,VWS V14.01,2013-05-11 20:56:00,
2013-05-11 14:00:00,87.4,64.1,29.98,SW,232,4.0,6.0,46,0.00,,---,0.01,VWS V14.01,2013-05-11 21:00:00,
2013-05-11 14:01:00,87.5,64.2,29.98,SW,231,0.0,4.0,46,0.00,,---,0.01,VWS V14.01,2013-05-11 21:01:00,
2013-05-11 14:06:00,87.6,63.0,29.98,West,273,2.0,7.0,44,0.00,,---,0.01,VWS V14.01,2013-05-11 21:06:00,
2013-05-11 14:11:00,87.5,63.6,29.98,West,260,5.0,10.0,45,0.00,,---,0.01,VWS V14.01,2013-05-11 21:11:00,
2013-05-11 14:15:00,87.3,62.7,29.98,SW,232,5.0,10.0,44,0.00,,---,0.01,VWS V14.01,2013-05-11 21:15:00,
2013-05-11 14:16:00,87.4,63.5,29.98,SW,232,3.0,7.0,45,0.00,,---,0.01,VWS V14.01,2013-05-11 21:16:00,
2013-05-11 14:21:00,87.3,63.4,29.98,West,271,6.0,7.0,45,0.00,,---,0.01,VWS V14.01,2013-05-11 21:21:00,
2013-05-11 14:26:00,87.1,62.6,29.97,West,267,3.0,7.0,44,0.00,,---,0.01,VWS V14.01,2013-05-11 21:26:00,
2013-05-11 14:30:00,86.9,63.0,29.97,West,280,4.0,7.0,45,0.00,,---,0.01,VWS V14.01,2013-05-11 21:30:00,
2013-05-11 14:31:00,86.9,61.7,29.97,NNW,342,0.0,7.0,43,0.00,,---,0.01,VWS V14.01,2013-05-11 21:31:00,
2013-05-11 14:36:00,86.6,62.8,29.97,WNW,283,0.0,9.0,45,0.00,,---,0.01,VWS V14.01,2013-05-11 21:36:00,
2013-05-11 14:41:00,86.8,64.2,29.97,WSW,242,4.0,9.0,47,0.00,,---,0.01,VWS V14.01,2013-05-11 21:41:00,
2013-05-11 14:45:00,86.7,62.2,29.97,WSW,244,2.0,10.0,44,0.00,,---,0.01,VWS V14.01,2013-05-11 21:45:00,
2013-05-11 14:46:00,86.6,62.8,29.97,West,261,4.0,8.0,45,0.00,,---,0.01,VWS V14.01,2013-05-11 21:46:00,
2013-05-11 14:51:00,86.2,63.0,29.97,West,274,1.0,11.0,46,0.00,,---,0.01,VWS V14.01,2013-05-11 21:51:00,
2013-05-11 14:56:00,85.9,61.5,29.97,NW,304,2.0,11.0,44,0.00,,---,0.01,VWS V14.01,2013-05-11 21:56:00,
2013-05-11 15:00:00,85.5,62.4,29.97,NNE,13,2.0,11.0,46,0.00,,---,0.01,VWS V14.01,2013-05-11 22:00:00,
2013-05-11 15:01:00,85.4,61.0,29.97,West,273,6.0,7.0,44,0.00,,---,0.01,VWS V14.01,2013-05-11 22:01:00,
2013-05-11 15:06:00,85.4,62.9,29.97,WSW,244,5.0,7.0,47,0.00,,---,0.01,VWS V14.01,2013-05-11 22:06:00,
2013-05-11 15:11:00,85.4,61.7,29.97,WNW,296,2.0,7.0,45,0.00,,---,0.01,VWS V14.01,2013-05-11 22:11:00,
2013-05-11 15:15:00,85.2,62.1,29.97,SSW,194,0.0,7.0,46,0.00,,---,0.01,VWS V14.01,2013-05-11 22:15:00,
2013-05-11 15:16:00,85.3,62.8,29.97,SW,225,3.0,4.0,47,0.00,,---,0.01,VWS V14.01,2013-05-11 22:16:00,
2013-05-11 15:21:00,85.5,64.8,29.96,SW,231,5.0,8.0,50,0.00,,---,0.01,VWS V14.01,2013-05-11 22:21:00,
2013-05-11 15:26:00,85.5,63.0,29.96,SSW,211,0.0,8.0,47,0.00,,---,0.01,VWS V14.01,2013-05-11 22:26:00,
2013-05-11 15:30:00,85.4,64.1,29.96,West,267,0.0,8.0,49,0.00,,---,0.01,VWS V14.01,2013-05-11 22:30:00,
2013-05-11 15:31:00,85.4,62.3,29.96,West,262,5.0,5.0,46,0.00,,---,0.01,VWS V14.01,2013-05-11 22:31:00,
2013-05-11 15:36:00,85.4,61.7,29.96,West,264,3.0,7.0,45,0.00,,---,0.01,VWS V14.01,2013-05-11 22:36:00,
2013-05-11 15:41:00,85.2,62.1,29.96,West,262,1.0,9.0,46,0.00,,---,0.01,VWS V14.01,2013-05-11 22:41:00,
2013-05-11 15:45:00,85.0,61.9,29.96,WSW,238,1.0,9.0,46,0.00,,---,0.01,VWS V14.01,2013-05-11 22:45:00,
2013-05-11 15:46:00,85.0,61.3,29.96,West,259,3.0,6.0,45,0.00,,---,0.01,VWS V14.01,2013-05-11 22:46:00,
2013-05-11 15:51:00,85.0,62.5,29.96,SW,223,0.0,6.0,47,0.00,,---,0.01,VWS V14.01,2013-05-11 22:51:00,
2013-05-11 15:57:00,85.2,61.5,29.95,SW,233,3.0,8.0,45,0.00,,---,0.01,VWS V14.01,2013-05-11 22:57:00,
2013-05-11 16:00:00,85.2,62.7,29.95,West,275,2.0,8.0,47,0.00,,---,0.01,VWS V14.01,2013-05-11 23:00:00,
2013-05-11 16:01:00,85.3,62.2,29.95,WNW,282,1.0,5.0,46,0.00,,---,0.01,VWS V14.01,2013-05-11 23:01:00,
2013-05-11 16:07:00,85.5,62.4,29.95,West,264,2.0,5.0,46,0.00,,---,0.01,VWS V14.01,2013-05-11 23:07:00,
2013-05-11 16:12:00,85.9,61.5,29.95,West,281,0.0,6.0,44,0.00,,---,0.01,VWS V14.01,2013-05-11 23:12:00,
2013-05-11 16:15:00,86.0,62.2,29.95,SW,229,4.0,7.0,45,0.00,,---,0.01,VWS V14.01,2013-05-11 23:15:00,
2013-05-11 16:17:00,86.0,62.2,29.95,SW,229,4.0,5.0,45,0.00,,---,0.01,VWS V14.01,2013-05-11 23:17:00,
2013-05-11 16:22:00,85.7,61.9,29.95,SW,232,5.0,7.0,45,0.00,,---,0.01,VWS V14.01,2013-05-11 23:22:00,
2013-05-11 16:27:00,85.5,61.8,29.95,WSW,237,5.0,7.0,45,0.00,,---,0.01,VWS V14.01,2013-05-11 23:27:00,
2013-05-11 16:30:00,85.5,61.1,29.95,West,267,0.0,7.0,44,0.00,,---,0.01,VWS V14.01,2013-05-11 23:30:00,
2013-05-11 16:32:00,85.6,62.5,29.95,SW,232,1.0,4.0,46,0.00,,---,0.01,VWS V14.01,2013-05-11 23:32:00,
2013-05-11 16:37:00,85.9,61.5,29.95,NW,314,4.0,6.0,44,0.00,,---,0.01,VWS V14.01,2013-05-11 23:37:00,
2013-05-11 16:42:00,85.9,61.5,29.95,WNW,296,1.0,9.0,44,0.00,,---,0.01,VWS V14.01,2013-05-11 23:42:00,
2013-05-11 16:45:00,85.8,62.7,29.95,WSW,253,6.0,9.0,46,0.00,,---,0.01,VWS V14.01,2013-05-11 23:45:00,
2013-05-11 16:47:00,85.7,62.6,29.95,West,260,2.0,6.0,46,0.00,,---,0.01,VWS V14.01,2013-05-11 23:47:00,
2013-05-11 16:52:00,85.4,62.9,29.95,SW,231,1.0,6.0,47,0.00,,---,0.01,VWS V14.01,2013-05-11 23:52:00,
2013-05-11 16:57:00,85.0,62.5,29.95,West,263,3.0,6.0,47,0.00,,---,0.01,VWS V14.01,2013-05-11 23:57:00,
2013-05-11 17:00:00,84.7,63.4,29.95,West,263,1.0,6.0,49,0.00,,---,0.01,VWS V14.01,2013-05-12 00:00:00,
2013-05-11 17:02:00,84.6,62.2,29.95,NW,315,1.0,3.0,47,0.00,,---,0.01,VWS V14.01,2013-05-12 00:02:00,
2013-05-11 17:07:00,84.5,63.3,29.95,WSW,250,2.0,4.0,49,0.00,,---,0.01,VWS V14.01,2013-05-12 00:07:00,
2013-05-11 17:12:00,84.1,62.9,29.95,West,275,5.0,6.0,49,0.00,,---,0.01,VWS V14.01,2013-05-12 00:12:00,
2013-05-11 17:15:00,83.9,63.3,29.95,WSW,245,1.0,6.0,50,0.00,,---,0.01,VWS V14.01,2013-05-12 00:15:00,
2013-05-11 17:17:00,83.8,63.2,29.95,WSW,250,0.0,4.0,50,0.00,,---,0.01,VWS V14.01,2013-05-12 00:17:00,
2013-05-11 17:22:00,83.5,62.9,29.96,WSW,255,2.0,6.0,50,0.00,,---,0.01,VWS V14.01,2013-05-12 00:22:00,
2013-05-11 17:27:00,83.1,63.1,29.95,WSW,246,4.0,7.0,51,0.00,,---,0.01,VWS V14.01,2013-05-12 00:27:00,
2013-05-11 17:30:00,82.7,62.8,29.96,West,276,5.0,7.0,51,0.00,,---,0.01,VWS V14.01,2013-05-12 00:30:00,
2013-05-11 17:32:00,82.6,62.7,29.96,West,276,5.0,5.0,51,0.00,,---,0.01,VWS V14.01,2013-05-12 00:32:00,
2013-05-11 17:37:00,82.2,63.4,29.96,West,267,0.0,5.0,53,0.00,,---,0.01,VWS V14.01,2013-05-12 00:37:00,
2013-05-11 17:42:00,82.0,62.7,29.96,WSW,244,4.0,5.0,52,0.00,,---,0.01,VWS V14.01,2013-05-12 00:42:00,
2013-05-11 17:45:00,81.8,63.5,29.95,SW,232,0.0,7.0,54,0.00,,---,0.01,VWS V14.01,2013-05-12 00:45:00,
2013-05-11 17:47:00,81.6,62.8,29.95,SW,229,2.0,5.0,53,0.00,,---,0.01,VWS V14.01,2013-05-12 00:47:00,
2013-05-11 17:52:00,81.2,61.9,29.95,WNW,296,0.0,6.0,52,0.00,,---,0.01,VWS V14.01,2013-05-12 00:52:00,
2013-05-11 17:57:00,80.9,62.7,29.95,NW,306,0.0,6.0,54,0.00,,---,0.01,VWS V14.01,2013-05-12 00:57:00,
2013-05-11 18:00:00,80.9,62.7,29.95,West,263,0.0,6.0,54,0.00,,---,0.01,VWS V14.01,2013-05-12 01:00:00,
2013-05-11 18:02:00,80.9,62.2,29.95,WSW,238,2.0,4.0,53,0.00,,---,0.01,VWS V14.01,2013-05-12 01:02:00,
2013-05-11 18:07:00,80.7,62.5,29.96,West,264,3.0,6.0,54,0.00,,---,0.01,VWS V14.01,2013-05-12 01:07:00,
2013-05-11 18:12:00,80.5,62.3,29.96,WNW,286,0.0,10.0,54,0.00,,---,0.01,VWS V14.01,2013-05-12 01:12:00,
2013-05-11 18:15:00,80.3,62.7,29.96,WSW,246,4.0,10.0,55,0.00,,---,0.01,VWS V14.01,2013-05-12 01:15:00,
2013-05-11 18:17:00,80.3,62.7,29.96,West,272,1.0,4.0,55,0.00,,---,0.01,VWS V14.01,2013-05-12 01:17:00,
2013-05-11 18:22:00,80.0,61.9,29.95,WSW,237,0.0,5.0,54,0.00,,---,0.01,VWS V14.01,2013-05-12 01:22:00,
2013-05-11 18:27:00,79.7,62.1,29.95,NNW,328,0.0,5.0,55,0.00,,---,0.01,VWS V14.01,2013-05-12 01:27:00,
2013-05-11 18:30:00,79.5,61.9,29.95,NW,319,0.0,5.0,55,0.00,,---,0.01,VWS V14.01,2013-05-12 01:30:00,
2013-05-11 18:32:00,79.4,62.3,29.96,NW,317,0.0,1.0,56,0.00,,---,0.01,VWS V14.01,2013-05-12 01:32:00,
2013-05-11 18:37:00,79.4,61.8,29.96,NW,307,0.0,1.0,55,0.00,,---,0.01,VWS V14.01,2013-05-12 01:37:00,
2013-05-11 18:42:00,79.3,62.3,29.96,West,263,4.0,4.0,56,0.00,,---,0.01,VWS V14.01,2013-05-12 01:42:00,
2013-05-11 18:45:00,79.1,62.1,29.96,WSW,254,0.0,5.0,56,0.00,,---,0.01,VWS V14.01,2013-05-12 01:45:00,
2013-05-11 18:47:00,78.9,61.9,29.96,West,259,1.0,4.0,56,0.00,,---,0.01,VWS V14.01,2013-05-12 01:47:00,
2013-05-11 18:52:00,78.7,61.7,29.96,NW,304,0.0,4.0,56,0.00,,---,0.01,VWS V14.01,2013-05-12 01:52:00,
2013-05-11 18:58:00,78.3,61.8,29.96,WNW,303,0.0,4.0,57,0.00,,---,0.01,VWS V14.01,2013-05-12 01:58:00,
2013-05-11 19:00:00,78.2,62.2,29.96,West,261,0.0,4.0,58,0.00,,---,0.01,VWS V14.01,2013-05-12 02:00:00,
2013-05-11 19:03:00,78.0,62.0,29.96,West,262,1.0,3.0,58,0.00,,---,0.01,VWS V14.01,2013-05-12 02:03:00,
2013-05-11 19:08:00,77.6,62.2,29.96,WSW,249,3.0,4.0,59,0.00,,---,0.01,VWS V14.01,2013-05-12 02:08:00,
2013-05-11 19:13:00,77.1,61.7,29.97,WSW,248,0.0,4.0,59,0.00,,---,0.01,VWS V14.01,2013-05-12 02:13:00,
2013-05-11 19:15:00,76.8,61.9,29.97,WSW,248,1.0,4.0,60,0.00,,---,0.01,VWS V14.01,2013-05-12 02:15:00,
2013-05-11 19:18:00,76.6,61.7,29.97,WSW,248,0.0,1.0,60,0.00,,---,0.01,VWS V14.01,2013-05-12 02:18:00,
2013-05-11 19:23:00,76.1,61.7,29.97,WSW,247,0.0,1.0,61,0.00,,---,0.01,VWS V14.01,2013-05-12 02:23:00,
2013-05-11 19:28:00,75.6,61.2,29.97,WSW,247,0.0,3.0,61,0.00,,---,0.01,VWS V14.01,2013-05-12 02:28:00,
2013-05-11 19:30:00,75.4,61.5,29.97,WSW,248,0.0,3.0,62,0.00,,---,0.01,VWS V14.01,2013-05-12 02:30:00,
2013-05-11 19:33:00,75.2,61.3,29.98,WSW,248,0.0,0.0,62,0.00,,---,0.01,VWS V14.01,2013-05-12 02:33:00,
2013-05-11 19:38:00,74.9,61.5,29.98,WSW,248,0.0,0.0,63,0.00,,---,0.01,VWS V14.01,2013-05-12 02:38:00,
2013-05-11 19:43:00,74.6,61.2,29.98,WSW,248,0.0,0.0,63,0.00,,---,0.01,VWS V14.01,2013-05-12 02:43:00,
2013-05-11 19:45:00,74.4,61.0,29.98,WSW,248,0.0,0.0,63,0.00,,---,0.01,VWS V14.01,2013-05-12 02:45:00,
2013-05-11 19:48:00,74.3,60.9,29.98,WSW,247,0.0,0.0,63,0.00,,---,0.01,VWS V14.01,2013-05-12 02:48:00,
2013-05-11 19:53:00,74.0,61.1,29.98,WSW,248,0.0,0.0,64,0.00,,---,0.01,VWS V14.01,2013-05-12 02:53:00,
2013-05-11 19:58:00,73.5,61.0,29.99,SW,216,3.0,5.0,65,0.00,,---,0.01,VWS V14.01,2013-05-12 02:58:00,
2013-05-11 20:00:00,73.3,60.8,29.99,SW,218,3.0,5.0,65,0.00,,---,0.01,VWS V14.01,2013-05-12 03:00:00,
2013-05-11 20:03:00,73.1,61.1,29.99,SW,219,1.0,4.0,66,0.00,,---,0.01,VWS V14.01,2013-05-12 03:03:00,
2013-05-11 20:08:00,72.5,60.5,29.99,SW,221,0.0,4.0,66,0.00,,---,0.01,VWS V14.01,2013-05-12 03:08:00,
2013-05-11 20:13:00,72.1,60.5,29.99,SW,221,0.0,4.0,67,0.00,,---,0.01,VWS V14.01,2013-05-12 03:13:00,
2013-05-11 20:15:00,71.9,60.4,29.99,SW,221,0.0,4.0,67,0.00,,---,0.01,VWS V14.01,2013-05-12 03:15:00,
2013-05-11 20:18:00,71.7,60.2,29.99,SW,221,0.0,0.0,67,0.00,,---,0.01,VWS V14.01,2013-05-12 03:18:00,
2013-05-11 20:23:00,71.4,60.3,29.99,ESE,120,0.0,3.0,68,0.00,,---,0.01,VWS V14.01,2013-05-12 03:23:00,
2013-05-11 20:28:00,71.4,60.7,30.00,ESE,119,2.0,4.0,69,0.00,,---,0.01,VWS V14.01,2013-05-12 03:28:00,
2013-05-11 20:30:00,71.5,60.8,30.00,ESE,117,3.0,4.0,69,0.00,,---,0.01,VWS V14.01,2013-05-12 03:30:00,
2013-05-11 20:33:00,71.6,60.5,30.00,ESE,117,0.0,3.0,68,0.00,,---,0.01,VWS V14.01,2013-05-12 03:33:00,
2013-05-11 20:38:00,71.8,60.7,30.00,ESE,117,0.0,3.0,68,0.00,,---,0.01,VWS V14.01,2013-05-12 03:38:00,
2013-05-11 20:43:00,71.9,60.8,30.00,ESE,117,0.0,3.0,68,0.00,,---,0.01,VWS V14.01,2013-05-12 03:43:00,
2013-05-11 20:45:00,71.9,60.8,30.00,ESE,117,0.0,3.0,68,0.00,,---,0.01,VWS V14.01,2013-05-12 03:45:00,
2013-05-11 20:48:00,72.0,60.9,30.00,ESE,117,0.0,1.0,68,0.00,,---,0.01,VWS V14.01,2013-05-12 03:48:00,
2013-05-11 20:53:00,72.0,60.9,30.00,ESE,117,0.0,1.0,68,0.00,,---,0.01,VWS V14.01,2013-05-12 03:53:00,
2013-05-11 20:58:00,72.0,60.9,30.00,ESE,117,0.0,1.0,68,0.00,,---,0.01,VWS V14.01,2013-05-12 03:58:00,
2013-05-11 21:00:00,71.9,60.8,30.00,ESE,117,0.0,1.0,68,0.00,,---,0.01,VWS V14.01,2013-05-12 04:00:00,
2013-05-11 21:01:00,71.9,60.8,29.99,ESE,117,0.0,0.0,68,0.00,,---,0.01,VWS V14.01,2013-05-12 04:01:00,
2013-05-11 21:02:00,71.9,60.8,29.99,ESE,117,0.0,0.0,68,0.00,,---,0.01,VWS V14.01,2013-05-12 04:02:00,
2013-05-11 21:07:00,71.6,60.5,29.99,ESE,117,0.0,0.0,68,0.00,,---,0.01,VWS V14.01,2013-05-12 04:07:00,
2013-05-11 21:13:00,71.3,60.6,30.00,ESE,117,0.0,0.0,69,0.00,,---,0.01,VWS V14.01,2013-05-12 04:13:00,
2013-05-11 21:15:00,71.2,60.5,30.00,ESE,117,0.0,0.0,69,0.00,,---,0.01,VWS V14.01,2013-05-12 04:15:00,
2013-05-11 21:18:00,71.0,60.3,30.00,ESE,117,0.0,0.0,69,0.00,,---,0.01,VWS V14.01,2013-05-12 04:18:00,
2013-05-11 21:23:00,70.6,60.0,30.00,ESE,118,0.0,0.0,69,0.00,,---,0.01,VWS V14.01,2013-05-12 04:23:00,
2013-05-11 21:28:00,70.3,60.1,30.00,ESE,118,0.0,0.0,70,0.00,,---,0.01,VWS V14.01,2013-05-12 04:28:00,
2013-05-11 21:30:00,70.1,59.9,30.00,ESE,117,0.0,0.0,70,0.00,,---,0.01,VWS V14.01,2013-05-12 04:30:00,
2013-05-11 21:33:00,70.0,59.8,30.00,ESE,117,0.0,0.0,70,0.00,,---,0.01,VWS V14.01,2013-05-12 04:33:00,
2013-05-11 21:38:00,69.7,59.5,30.01,ESE,116,0.0,0.0,70,0.00,,---,0.01,VWS V14.01,2013-05-12 04:38:00,
2013-05-11 21:43:00,69.4,59.6,30.01,ESE,116,0.0,0.0,71,0.00,,---,0.01,VWS V14.01,2013-05-12 04:43:00,
2013-05-11 21:48:00,69.1,59.7,30.01,ESE,117,0.0,0.0,72,0.00,,---,0.01,VWS V14.01,2013-05-12 04:48:00,
2013-05-11 21:53:00,68.7,59.7,30.01,ESE,117,0.0,0.0,73,0.00,,---,0.01,VWS V14.01,2013-05-12 04:53:00,
2013-05-11 21:58:00,68.3,59.3,30.01,ESE,115,0.0,2.0,73,0.00,,---,0.01,VWS V14.01,2013-05-12 04:58:00,
2013-05-11 22:00:00,68.2,59.2,30.01,ESE,115,0.0,2.0,73,0.00,,---,0.01,VWS V14.01,2013-05-12 05:00:00,
2013-05-11 22:03:00,68.0,59.4,30.01,ESE,115,0.0,0.0,74,0.00,,---,0.01,VWS V14.01,2013-05-12 05:03:00,
2013-05-11 22:08:00,67.8,59.2,30.01,ESE,117,0.0,0.0,74,0.00,,---,0.01,VWS V14.01,2013-05-12 05:08:00,
2013-05-11 22:13:00,67.4,59.2,30.01,ESE,116,0.0,0.0,75,0.00,,---,0.01,VWS V14.01,2013-05-12 05:13:00,
2013-05-11 22:15:00,67.2,59.0,30.01,ESE,117,0.0,0.0,75,0.00,,---,0.01,VWS V14.01,2013-05-12 05:15:00,
2013-05-11 22:18:00,67.1,58.9,30.01,ESE,117,0.0,0.0,75,0.00,,---,0.01,VWS V14.01,2013-05-12 05:18:00,
2013-05-11 22:23:00,66.8,59.0,30.01,ESE,117,0.0,0.0,76,0.00,,---,0.01,VWS V14.01,2013-05-12 05:23:00,
2013-05-11 22:28:00,66.5,58.7,30.01,ESE,117,0.0,0.0,76,0.00,,---,0.01,VWS V14.01,2013-05-12 05:28:00,
2013-05-11 22:30:00,66.3,58.5,30.02,ESE,117,0.0,0.0,76,0.00,,---,0.01,VWS V14.01,2013-05-12 05:30:00,
2013-05-11 22:33:00,66.2,58.4,30.02,ESE,117,0.0,0.0,76,0.00,,---,0.01,VWS V14.01,2013-05-12 05:33:00,
2013-05-11 22:38:00,65.8,58.0,30.02,ESE,115,0.0,0.0,76,0.00,,---,0.01,VWS V14.01,2013-05-12 05:38:00,
2013-05-11 22:43:00,65.5,58.1,30.02,ESE,117,0.0,0.0,77,0.00,,---,0.01,VWS V14.01,2013-05-12 05:43:00,
2013-05-11 22:45:00,65.4,58.0,30.01,ESE,116,0.0,0.0,77,0.00,,---,0.01,VWS V14.01,2013-05-12 05:45:00,
2013-05-11 22:48:00,65.2,57.8,30.01,ESE,117,0.0,0.0,77,0.00,,---,0.01,VWS V14.01,2013-05-12 05:48:00,
2013-05-11 22:53:00,64.9,57.9,30.02,ESE,115,0.0,0.0,78,0.00,,---,0.01,VWS V14.01,2013-05-12 05:53:00,
2013-05-11 22:58:00,64.6,57.6,30.02,ESE,117,0.0,0.0,78,0.00,,---,0.01,VWS V14.01,2013-05-12 05:58:00,
2013-05-11 23:00:00,64.5,57.8,30.02,ESE,116,0.0,0.0,79,0.00,,---,0.01,VWS V14.01,2013-05-12 06:00:00,
2013-05-11 23:03:00,64.3,57.7,30.01,ESE,117,0.0,0.0,79,0.00,,---,0.01,VWS V14.01,2013-05-12 06:03:00,
2013-05-11 23:08:00,64.0,57.4,30.01,ESE,115,0.0,0.0,79,0.00,,---,0.01,VWS V14.01,2013-05-12 06:08:00,
2013-05-11 23:13:00,63.7,57.1,30.01,ESE,115,0.0,0.0,79,0.00,,---,0.01,VWS V14.01,2013-05-12 06:13:00,
2013-05-11 23:15:00,63.6,57.3,30.01,ESE,116,0.0,0.0,80,0.00,,---,0.01,VWS V14.01,2013-05-12 06:15:00,
2013-05-11 23:18:00,63.5,57.2,30.01,ESE,117,0.0,0.0,80,0.00,,---,0.01,VWS V14.01,2013-05-12 06:18:00,
2013-05-11 23:23:00,63.4,57.5,30.01,ESE,115,0.0,0.0,81,0.00,,---,0.01,VWS V14.01,2013-05-12 06:23:00,
2013-05-11 23:28:00,63.1,57.2,30.01,ESE,116,0.0,0.0,81,0.00,,---,0.01,VWS V14.01,2013-05-12 06:28:00,
2013-05-11 23:30:00,63.1,57.2,30.01,ESE,117,0.0,0.0,81,0.00,,---,0.01,VWS V14.01,2013-05-12 06:30:00,
2013-05-11 23:33:00,62.9,57.0,30.01,ESE,117,0.0,0.0,81,0.00,,---,0.01,VWS V14.01,2013-05-12 06:33:00,
2013-05-11 23:38:00,62.8,56.5,30.01,ESE,116,0.0,0.0,80,0.00,,---,0.01,VWS V14.01,2013-05-12 06:38:00,
2013-05-11 23:43:00,62.6,56.3,30.01,ESE,117,0.0,0.0,80,0.00,,---,0.01,VWS V14.01,2013-05-12 06:43:00,
2013-05-11 23:45:00,62.6,56.3,30.01,ESE,115,0.0,0.0,80,0.00,,---,0.01,VWS V14.01,2013-05-12 06:45:00,
2013-05-11 23:48:00,62.5,56.2,30.01,ESE,116,0.0,0.0,80,0.00,,---,0.01,VWS V14.01,2013-05-12 06:48:00,
2013-05-11 23:53:00,62.4,56.2,30.01,ESE,117,0.0,0.0,80,0.00,,---,0.01,VWS V14.01,2013-05-12 06:53:00,
2013-05-11 23:58:00,62.4,56.5,30.01,ESE,115,0.0,0.0,81,0.00,,---,0.01,VWS V14.01,2013-05-12 06:58:00,